Terminal Aerodrome Forecast
Issued by NWS

Home | Current Version | Previous Version | Graphics & Text | Print | Product List | Glossary On
Versions: 1 2 3 4 5 6 7 8 9 10 11 12 13 14 15 16 17 18
000
FTUS42 KMHX 251500 AAA
TAFPGV
TAF AMD
KPGV 251505Z 2515/2612 35004KT P6SM SCT025
     FM251530 04010G18KT P6SM BKN025
     FM251700 04010G20KT P6SM BKN035
     FM252300 05008KT P6SM SKC
      AMD LTD TO CLD VIS AND WIND=

USA.gov is the U.S. government's official web portal to all federal, state and local government web resources and services.